createdAt,value
2017-10-16T00:02:02.309Z,10.20
2017-10-16T00:04:36.809Z,11.40
2017-10-16T00:07:11.762Z,10.53
2017-10-16T00:09:45.664Z,12.87
2017-10-16T00:12:19.369Z,12.27
2017-10-16T00:14:53.305Z,11.20
2017-10-16T00:17:27.895Z,11.33
2017-10-16T00:20:01.716Z,11.60
2017-10-16T00:22:35.545Z,10.87
2017-10-16T00:25:09.423Z,11.83
2017-10-16T00:27:43.155Z,10.70
2017-10-16T00:30:17.501Z,12.30
2017-10-16T00:32:51.164Z,10.03
2017-10-16T00:35:25.885Z,11.77
2017-10-16T00:37:59.623Z,11.13
2017-10-16T00:40:33.452Z,12.23
2017-10-16T00:43:07.222Z,10.97
2017-10-16T00:45:41.106Z,11.20
2017-10-16T00:48:15.056Z,12.30
2017-10-16T00:50:48.918Z,15.13
2017-10-16T00:53:23.024Z,12.40
2017-10-16T00:55:56.685Z,10.87
2017-10-16T00:58:30.531Z,11.43
2017-10-16T01:01:04.461Z,14.83
2017-10-16T01:03:39.250Z,12.20
2017-10-16T01:06:13.653Z,12.57
2017-10-16T01:08:47.444Z,10.73
2017-10-16T01:11:21.081Z,13.07
2017-10-16T01:13:54.943Z,10.40
2017-10-16T01:16:29.601Z,11.37
2017-10-16T01:19:03.479Z,11.67
2017-10-16T01:21:37.374Z,12.33
2017-10-16T01:24:11.092Z,12.63
2017-10-16T01:26:48.420Z,14.37
2017-10-16T01:29:22.628Z,11.30
2017-10-16T01:31:57.056Z,13.20
2017-10-16T01:34:30.880Z,11.83
2017-10-16T01:37:04.687Z,13.30
2017-10-16T01:39:38.557Z,17.60
2017-10-16T01:42:12.299Z,12.27
2017-10-16T01:45:05.288Z,12.87
2017-10-16T01:47:39.110Z,14.27
2017-10-16T01:50:14.664Z,13.73
2017-10-16T01:52:48.526Z,13.43
2017-10-16T01:55:24.125Z,12.80
2017-10-16T01:57:58.019Z,13.23
2017-10-16T02:00:31.740Z,12.70
2017-10-16T02:03:06.291Z,14.07
2017-10-16T02:05:40.835Z,13.00
2017-10-16T02:08:14.564Z,13.77
2017-10-16T02:10:49.105Z,14.77
2017-10-16T02:13:22.864Z,13.97
2017-10-16T02:15:56.570Z,13.20
2017-10-16T02:18:30.340Z,13.43
2017-10-16T02:21:04.869Z,14.03
2017-10-16T02:23:39.403Z,13.30
2017-10-16T02:26:14.189Z,13.60
2017-10-16T02:28:48.616Z,13.07
2017-10-16T02:31:22.458Z,14.37
2017-10-16T02:33:56.128Z,19.73
2017-10-16T02:36:29.933Z,12.63
2017-10-16T02:39:03.629Z,15.43
2017-10-16T02:41:37.396Z,15.83
2017-10-16T02:44:11.138Z,15.13
2017-10-16T02:46:45.737Z,14.90
2017-10-16T02:49:19.443Z,14.53
2017-10-16T02:51:53.086Z,18.20
2017-10-16T02:54:26.824Z,17.97
2017-10-16T02:57:00.580Z,13.53
2017-10-16T02:59:35.120Z,16.97
2017-10-16T03:02:10.385Z,15.97
2017-10-16T03:04:44.234Z,14.13
2017-10-16T03:07:18.013Z,17.03
2017-10-16T03:09:51.733Z,16.00
2017-10-16T03:12:25.572Z,15.27
2017-10-16T03:14:59.276Z,13.03
2017-10-16T03:17:33.840Z,15.67
2017-10-16T03:20:09.315Z,14.27
2017-10-16T03:22:44.009Z,15.80
2017-10-16T03:25:18.500Z,16.37
2017-10-16T03:27:52.476Z,15.40
2017-10-16T03:30:26.362Z,16.33
2017-10-16T03:33:00.191Z,15.93
2017-10-16T03:35:34.685Z,16.57
2017-10-16T03:38:08.517Z,16.20
2017-10-16T03:40:42.350Z,16.87
2017-10-16T03:43:16.285Z,16.23
2017-10-16T03:45:50.000Z,15.47
2017-10-16T03:48:23.609Z,14.67
2017-10-16T03:50:58.170Z,15.30
2017-10-16T03:53:32.014Z,16.37
2017-10-16T03:56:05.777Z,18.20
2017-10-16T03:58:39.626Z,16.43
2017-10-16T04:01:13.355Z,16.33
2017-10-16T04:03:47.866Z,17.07
2017-10-16T04:06:21.660Z,17.53
2017-10-16T04:08:55.409Z,17.03
2017-10-16T04:11:29.186Z,16.43
2017-10-16T04:14:02.852Z,17.53
2017-10-16T04:16:36.471Z,17.33
2017-10-16T04:19:10.333Z,17.53
2017-10-16T04:21:44.122Z,18.30
2017-10-16T04:24:19.028Z,17.90
2017-10-16T04:26:52.911Z,18.00
2017-10-16T04:29:26.664Z,17.90
2017-10-16T04:32:35.867Z,18.67
2017-10-16T04:35:10.037Z,19.13
2017-10-16T04:37:43.613Z,17.93
2017-10-16T04:40:17.403Z,19.40
2017-10-16T04:42:50.949Z,20.17
2017-10-16T04:45:24.548Z,20.57
2017-10-16T04:48:05.109Z,19.53
2017-10-16T04:50:52.944Z,20.80
2017-10-16T04:53:52.029Z,23.13
2017-10-16T04:56:27.411Z,19.50
2017-10-16T04:59:01.094Z,17.63
2017-10-16T05:01:34.910Z,17.57
2017-10-16T05:04:08.575Z,18.17
2017-10-16T05:06:42.320Z,19.23
2017-10-16T05:09:16.152Z,20.10
2017-10-16T05:11:50.034Z,19.47
2017-10-16T05:14:25.184Z,17.57
2017-10-16T05:16:59.308Z,17.90
2017-10-16T05:19:33.033Z,16.60
2017-10-16T05:22:12.233Z,18.23
2017-10-16T05:24:45.926Z,18.43
2017-10-16T05:27:20.423Z,20.03
2017-10-16T05:29:54.025Z,20.20
2017-10-16T05:32:27.656Z,20.57
2017-10-16T05:35:01.260Z,18.50
2017-10-16T05:37:35.965Z,21.73
2017-10-16T05:40:10.777Z,18.40
2017-10-16T05:42:54.604Z,21.87
2017-10-16T05:45:28.382Z,23.20
2017-10-16T05:50:40.424Z,21.30
2017-10-16T05:53:14.449Z,20.07
2017-10-16T05:55:48.503Z,20.57
2017-10-16T05:58:23.884Z,24.60
2017-10-16T06:00:58.370Z,19.07
2017-10-16T06:03:32.226Z,19.70
2017-10-16T06:06:07.577Z,23.10
2017-10-16T06:08:41.278Z,24.63
2017-10-16T06:11:15.062Z,22.50
2017-10-16T06:13:49.452Z,20.87
2017-10-16T06:16:23.301Z,21.50
2017-10-16T06:18:57.283Z,20.57
2017-10-16T06:21:31.721Z,20.93
2017-10-16T06:24:06.346Z,22.07
2017-10-16T06:26:40.193Z,20.77
2017-10-16T06:29:13.896Z,23.67
2017-10-16T06:31:47.538Z,21.03
2017-10-16T06:34:22.065Z,21.17
2017-10-16T06:36:55.626Z,20.77
2017-10-16T06:39:29.433Z,21.27
2017-10-16T06:42:04.201Z,20.60
2017-10-16T06:44:38.894Z,23.53
2017-10-16T06:47:13.404Z,20.07
2017-10-16T06:49:47.089Z,19.10
2017-10-16T06:52:20.828Z,19.87
2017-10-16T06:54:55.039Z,19.80
2017-10-16T06:57:28.660Z,22.17
2017-10-16T07:00:02.564Z,20.10
2017-10-16T07:02:36.240Z,18.43
2017-10-16T07:05:10.093Z,18.77
2017-10-16T07:07:44.879Z,21.27
2017-10-16T07:10:19.783Z,20.30
2017-10-16T07:12:54.236Z,19.03
2017-10-16T07:15:28.349Z,23.67
2017-10-16T07:18:02.140Z,19.30
2017-10-16T07:20:37.503Z,19.43
2017-10-16T07:23:12.641Z,17.97
2017-10-16T07:25:46.440Z,20.37
2017-10-16T07:28:20.369Z,17.43
2017-10-16T07:30:54.333Z,19.87
2017-10-16T07:33:28.611Z,19.20
2017-10-16T07:36:03.548Z,18.80
2017-10-16T07:38:38.153Z,18.93
2017-10-16T07:41:12.004Z,19.63
2017-10-16T07:43:46.293Z,20.27
2017-10-16T07:46:21.742Z,16.93
2017-10-16T07:48:55.344Z,19.07
2017-10-16T07:51:29.598Z,18.17
2017-10-16T07:54:03.301Z,21.77
2017-10-16T07:56:37.324Z,17.60
2017-10-16T07:59:11.104Z,18.43
2017-10-16T08:01:45.108Z,16.97
2017-10-16T08:04:21.250Z,22.33
2017-10-16T08:06:55.417Z,17.77
2017-10-16T08:09:29.162Z,18.73
2017-10-16T08:12:05.482Z,18.50
2017-10-16T08:14:41.597Z,17.73
2017-10-16T08:17:17.253Z,20.27
2017-10-16T08:19:51.957Z,17.93
2017-10-16T08:22:28.184Z,17.57
2017-10-16T08:25:02.345Z,18.50
2017-10-16T08:27:37.034Z,19.40
2017-10-16T08:30:10.814Z,17.97
2017-10-16T08:32:44.584Z,16.77
2017-10-16T08:35:18.272Z,18.47
2017-10-16T08:37:52.910Z,15.77
2017-10-16T08:40:26.604Z,17.00
2017-10-16T08:43:03.485Z,18.13
2017-10-16T08:45:37.139Z,16.27
2017-10-16T08:48:11.515Z,16.40
2017-10-16T08:50:46.130Z,17.30
2017-10-16T08:53:19.974Z,17.90
2017-10-16T08:55:53.783Z,20.07
2017-10-16T08:58:27.661Z,17.60
2017-10-16T09:01:02.221Z,17.13
2017-10-16T09:03:35.963Z,15.80
2017-10-16T09:06:09.784Z,15.97
2017-10-16T09:08:44.973Z,17.37
2017-10-16T09:11:18.696Z,20.23
2017-10-16T09:13:53.876Z,16.73
2017-10-16T09:16:28.837Z,16.77
2017-10-16T09:19:03.616Z,15.70
2017-10-16T09:21:39.808Z,16.00
2017-10-16T09:24:14.560Z,16.70
2017-10-16T09:26:49.210Z,14.37
2017-10-16T09:29:22.962Z,14.63
2017-10-16T09:31:57.357Z,15.40
2017-10-16T09:34:31.156Z,14.70
2017-10-16T09:37:04.934Z,16.50
2017-10-16T09:39:39.985Z,17.43
2017-10-16T09:42:14.590Z,14.97
2017-10-16T09:44:48.611Z,16.50
2017-10-16T09:47:22.737Z,14.97
2017-10-16T09:52:35.081Z,15.53
2017-10-16T09:55:09.080Z,15.13
2017-10-16T09:57:43.177Z,13.70
2017-10-16T10:00:16.765Z,14.13
2017-10-16T10:02:50.840Z,14.63
2017-10-16T10:05:24.832Z,14.10
2017-10-16T10:07:58.441Z,14.37
2017-10-16T10:10:32.398Z,14.07
2017-10-16T10:13:10.036Z,15.20
2017-10-16T10:15:43.840Z,14.20
2017-10-16T10:18:19.393Z,15.77
2017-10-16T10:20:56.606Z,14.67
2017-10-16T10:23:31.453Z,14.53
2017-10-16T10:26:05.252Z,16.83
2017-10-16T10:28:39.380Z,12.70
2017-10-16T10:31:13.104Z,13.40
2017-10-16T10:33:47.091Z,19.83
2017-10-16T10:36:21.165Z,12.60
2017-10-16T10:38:55.634Z,15.63
2017-10-16T10:41:33.579Z,13.83
2017-10-16T10:44:08.310Z,18.13
2017-10-16T10:49:20.427Z,13.30
2017-10-16T10:54:32.093Z,11.97
2017-10-16T10:57:07.446Z,13.10
2017-10-16T10:59:41.074Z,12.77
2017-10-16T11:02:14.682Z,11.83
2017-10-16T11:07:28.037Z,12.57
2017-10-16T11:10:01.795Z,12.40
2017-10-16T11:12:36.040Z,12.43
2017-10-16T11:17:49.669Z,12.37
2017-10-16T11:20:24.111Z,11.73
2017-10-16T11:22:57.685Z,12.90
2017-10-16T11:25:33.212Z,15.37
2017-10-16T11:28:07.140Z,11.43
2017-10-16T11:30:42.364Z,12.67
2017-10-16T11:33:53.014Z,12.97
2017-10-16T11:36:28.831Z,18.00
2017-10-16T11:39:02.495Z,11.30
2017-10-16T11:41:36.252Z,11.90
2017-10-16T11:44:10.281Z,12.13
2017-10-16T11:46:44.905Z,12.03
2017-10-16T11:49:21.282Z,12.10
2017-10-16T11:54:34.936Z,12.70
2017-10-16T11:57:10.053Z,12.67
2017-10-16T11:59:43.701Z,11.77
2017-10-16T12:02:18.780Z,11.53
2017-10-16T12:04:54.486Z,10.57
2017-10-16T12:07:29.729Z,11.60
2017-10-16T12:10:05.717Z,10.53
2017-10-16T12:12:41.139Z,12.10
2017-10-16T12:15:14.929Z,11.40
2017-10-16T12:17:49.685Z,11.13
2017-10-16T12:20:24.325Z,10.83
2017-10-16T12:23:00.381Z,16.50
2017-10-16T12:25:34.267Z,10.33
2017-10-16T12:28:08.478Z,18.47
2017-10-16T12:30:42.278Z,9.07
2017-10-16T12:33:16.034Z,12.43
2017-10-16T12:35:50.842Z,9.87
2017-10-16T12:38:24.520Z,12.80
2017-10-16T12:43:36.678Z,17.50
2017-10-16T12:46:10.877Z,9.33
2017-10-16T12:48:45.227Z,10.30
2017-10-16T12:51:19.042Z,15.03
2017-10-16T12:53:54.006Z,11.13
2017-10-16T12:56:27.911Z,11.47
2017-10-16T12:59:03.175Z,11.60
2017-10-16T13:01:36.849Z,9.93
2017-10-16T13:04:11.966Z,11.10
2017-10-16T13:06:46.485Z,9.50
2017-10-16T13:09:20.356Z,9.47
2017-10-16T13:11:54.944Z,9.53
2017-10-16T13:14:28.714Z,11.03
2017-10-16T13:17:02.509Z,8.77
2017-10-16T13:19:36.777Z,10.37
2017-10-16T13:22:10.624Z,10.47
2017-10-16T13:24:45.136Z,9.80
2017-10-16T13:27:19.154Z,10.53
2017-10-16T13:29:53.638Z,10.80
2017-10-16T13:32:27.554Z,12.50
2017-10-16T13:35:01.300Z,9.83
2017-10-16T13:37:35.089Z,9.97
2017-10-16T13:40:09.557Z,10.53
2017-10-16T13:42:43.605Z,10.70
2017-10-16T13:45:17.490Z,9.67
2017-10-16T13:47:51.168Z,9.53
2017-10-16T13:50:25.741Z,10.90
2017-10-16T13:53:00.295Z,10.40
2017-10-16T13:55:35.924Z,9.63
2017-10-16T13:58:09.708Z,10.50
2017-10-16T14:00:43.343Z,11.17
2017-10-16T14:03:17.081Z,10.50
2017-10-16T14:05:50.812Z,11.37
2017-10-16T14:08:24.550Z,14.47
2017-10-16T14:11:00.453Z,10.00
2017-10-16T14:13:34.990Z,9.40
2017-10-16T14:16:08.945Z,10.53
2017-10-16T14:18:42.868Z,10.10
2017-10-16T14:21:16.478Z,11.63
2017-10-16T14:23:50.235Z,10.03
2017-10-16T14:26:23.972Z,12.07
2017-10-16T14:28:57.586Z,9.33
2017-10-16T14:31:31.442Z,9.93
2017-10-16T14:34:05.951Z,17.27
2017-10-16T14:36:39.770Z,11.07
2017-10-16T14:39:14.096Z,11.50
2017-10-16T14:41:47.737Z,9.57
2017-10-16T14:44:21.537Z,9.50
2017-10-16T14:46:55.425Z,9.37
2017-10-16T14:49:29.084Z,14.97
2017-10-16T14:52:03.637Z,10.67
2017-10-16T14:54:38.022Z,11.80
2017-10-16T14:57:11.713Z,10.20
2017-10-16T14:59:45.415Z,11.03
2017-10-16T15:02:20.807Z,14.17
2017-10-16T15:04:54.683Z,12.13
2017-10-16T15:07:28.401Z,9.90
2017-10-16T15:10:02.029Z,10.10
2017-10-16T15:12:35.765Z,10.70
2017-10-16T15:15:09.434Z,10.87
2017-10-16T15:17:43.240Z,14.53
2017-10-16T15:20:17.768Z,10.27
2017-10-16T15:22:51.557Z,13.13
2017-10-16T15:25:25.379Z,11.03
2017-10-16T15:27:59.087Z,12.00
2017-10-16T15:30:33.595Z,13.07
2017-10-16T15:33:07.298Z,10.43
2017-10-16T15:35:40.916Z,11.83
2017-10-16T15:38:15.373Z,12.33
2017-10-16T15:40:49.039Z,11.20
2017-10-16T15:43:22.789Z,12.27
2017-10-16T15:45:56.670Z,10.80
2017-10-16T15:48:30.413Z,18.77
2017-10-16T15:51:05.116Z,12.73
2017-10-16T15:53:40.570Z,18.13
2017-10-16T15:56:14.326Z,11.27
2017-10-16T15:58:48.065Z,14.63
2017-10-16T16:01:23.357Z,12.37
2017-10-16T16:03:57.056Z,20.33
2017-10-16T16:06:31.914Z,14.93
2017-10-16T16:09:06.886Z,12.60
2017-10-16T16:11:40.541Z,14.07
2017-10-16T16:14:14.304Z,12.10
2017-10-16T16:16:48.485Z,13.83
2017-10-16T16:19:22.219Z,11.80
2017-10-16T16:21:56.791Z,12.97
2017-10-16T16:24:30.576Z,12.70
2017-10-16T16:27:04.394Z,14.40
2017-10-16T16:29:38.094Z,12.30
2017-10-16T16:32:11.668Z,9.83
2017-10-16T16:34:45.495Z,15.80
2017-10-16T16:37:19.996Z,12.13
2017-10-16T16:39:53.781Z,12.77
2017-10-16T16:42:28.260Z,15.63
2017-10-16T16:45:01.960Z,13.10
2017-10-16T16:47:35.672Z,12.17
2017-10-16T16:50:09.417Z,12.23
2017-10-16T16:52:46.924Z,12.27
2017-10-16T16:55:21.390Z,25.20
2017-10-16T16:57:55.207Z,23.13
2017-10-16T17:00:28.988Z,15.40
2017-10-16T17:03:02.679Z,17.87
2017-10-16T17:05:39.600Z,18.40
2017-10-16T17:08:13.233Z,18.07
2017-10-16T17:10:50.290Z,15.30
2017-10-16T17:13:23.824Z,15.57
2017-10-16T17:15:57.524Z,15.07
2017-10-16T17:18:31.280Z,15.13
2017-10-16T17:21:05.036Z,15.00
2017-10-16T17:23:39.648Z,15.40
2017-10-16T17:29:44.355Z,14.83
2017-10-16T17:32:19.109Z,15.63
2017-10-16T17:41:36.742Z,17.47
2017-10-16T17:44:12.698Z,16.07
2017-10-16T17:46:47.932Z,15.33
2017-10-16T17:49:24.035Z,15.43
2017-10-16T17:51:57.925Z,19.30
2017-10-16T17:54:32.076Z,18.80
2017-10-16T17:57:05.715Z,14.60
2017-10-16T17:59:39.543Z,14.90
2017-10-16T18:02:14.190Z,14.47
2017-10-16T18:04:48.778Z,18.30
2017-10-16T18:07:23.533Z,15.33
2017-10-16T18:09:58.171Z,15.30
2017-10-16T18:12:34.815Z,15.83
2017-10-16T18:15:09.494Z,18.27
2017-10-16T18:17:44.529Z,16.63
2017-10-16T18:20:19.380Z,14.60
2017-10-16T18:22:53.017Z,14.53
2017-10-16T18:25:28.650Z,16.90
2017-10-16T18:28:03.326Z,15.13
2017-10-16T18:30:38.776Z,15.67
2017-10-16T18:33:14.211Z,14.80
2017-10-16T18:35:50.538Z,18.10
2017-10-16T18:38:26.142Z,16.97
2017-10-16T18:41:02.059Z,14.73
2017-10-16T18:43:38.870Z,15.50
2017-10-16T18:46:12.582Z,15.27
2017-10-16T18:48:47.180Z,17.73
2017-10-16T18:51:22.336Z,14.83
2017-10-16T18:53:59.574Z,16.67
2017-10-16T18:56:33.287Z,14.90
2017-10-16T18:59:21.674Z,17.90
2017-10-16T19:04:39.540Z,15.23
2017-10-16T19:07:13.358Z,14.37
2017-10-16T19:09:48.873Z,15.53
2017-10-16T19:12:24.069Z,15.60
2017-10-16T19:14:59.254Z,16.53
2017-10-16T19:17:33.349Z,14.93
2017-10-16T19:20:07.331Z,14.93
2017-10-16T19:22:41.662Z,16.03
2017-10-16T19:25:18.964Z,14.87
2017-10-16T19:30:30.433Z,15.27
2017-10-16T19:33:06.750Z,13.90
2017-10-16T19:35:41.489Z,16.57
2017-10-16T19:38:15.036Z,13.10
2017-10-16T19:40:49.189Z,14.27
2017-10-16T19:43:23.591Z,15.30
2017-10-16T19:45:59.596Z,18.47
2017-10-16T19:48:33.910Z,15.43
2017-10-16T19:51:09.034Z,15.00
2017-10-16T19:53:43.426Z,12.23
2017-10-16T19:56:21.064Z,15.87
2017-10-16T19:58:55.839Z,16.37
2017-10-16T20:01:29.858Z,12.20
2017-10-16T20:04:05.873Z,13.47
2017-10-16T20:06:39.641Z,12.30
2017-10-16T20:09:14.523Z,17.00
2017-10-16T20:11:49.405Z,13.67
2017-10-16T20:14:28.616Z,12.23
2017-10-16T20:17:05.949Z,16.83
2017-10-16T20:19:41.543Z,12.70
2017-10-16T20:22:17.072Z,11.73
2017-10-16T20:24:51.777Z,15.30
2017-10-16T20:27:25.519Z,13.73
2017-10-16T20:29:59.280Z,12.93
2017-10-16T20:32:33.050Z,12.93
2017-10-16T20:35:07.720Z,13.43
2017-10-16T20:37:49.979Z,15.07
2017-10-16T20:40:23.657Z,13.23
2017-10-16T20:42:57.665Z,13.60
2017-10-16T20:45:31.574Z,13.40
2017-10-16T20:48:16.412Z,13.00
2017-10-16T20:50:51.178Z,14.13
2017-10-16T20:53:24.941Z,13.17
2017-10-16T20:55:59.281Z,12.63
2017-10-16T20:58:34.842Z,12.57
2017-10-16T21:01:08.640Z,14.10
2017-10-16T21:03:42.353Z,13.60
2017-10-16T21:06:16.859Z,14.47
2017-10-16T21:08:50.528Z,13.63
2017-10-16T21:11:24.382Z,12.07
2017-10-16T21:13:59.373Z,12.47
2017-10-16T21:16:33.805Z,14.63
2017-10-16T21:19:07.581Z,12.57
2017-10-16T21:21:42.505Z,14.30
2017-10-16T21:24:17.207Z,15.53
2017-10-16T21:26:50.972Z,12.87
2017-10-16T21:29:24.700Z,12.70
2017-10-16T21:31:59.115Z,13.10
2017-10-16T21:34:32.878Z,13.43
2017-10-16T21:37:06.708Z,13.97
2017-10-16T21:39:42.394Z,13.53
2017-10-16T21:42:16.220Z,13.00
2017-10-16T21:44:49.952Z,14.67
2017-10-16T21:47:23.569Z,13.40
2017-10-16T21:49:57.336Z,13.93
2017-10-16T21:52:31.115Z,13.83
2017-10-16T21:55:05.637Z,14.17
2017-10-16T21:57:39.404Z,15.47
2017-10-16T22:00:14.250Z,17.47
2017-10-16T22:02:48.731Z,14.57
2017-10-16T22:05:23.281Z,14.63
2017-10-16T22:07:57.087Z,15.93
2017-10-16T22:10:30.921Z,13.90
2017-10-16T22:13:04.777Z,15.90
2017-10-16T22:15:38.608Z,13.97
2017-10-16T22:18:12.284Z,16.30
2017-10-16T22:20:46.015Z,14.70
2017-10-16T22:23:20.406Z,19.23
2017-10-16T22:25:54.175Z,14.07
2017-10-16T22:28:28.748Z,15.67
2017-10-16T22:31:03.244Z,15.17
2017-10-16T22:33:37.810Z,15.93
2017-10-16T22:36:11.561Z,13.80
2017-10-16T22:38:45.365Z,15.60
2017-10-16T22:41:19.121Z,14.40
2017-10-16T22:43:54.065Z,13.10
2017-10-16T22:46:27.837Z,15.57
2017-10-16T22:49:01.641Z,14.83
2017-10-16T22:51:36.139Z,14.93
2017-10-16T22:57:10.635Z,12.47
2017-10-16T22:59:44.289Z,13.10
2017-10-16T23:02:18.084Z,14.97
2017-10-16T23:04:51.868Z,12.60
2017-10-16T23:07:26.455Z,13.40
2017-10-16T23:10:00.202Z,13.60
2017-10-16T23:12:33.921Z,14.00
2017-10-16T23:15:07.681Z,13.43
2017-10-16T23:17:41.439Z,13.53
2017-10-16T23:20:15.225Z,13.97
2017-10-16T23:22:48.995Z,14.63
2017-10-16T23:25:24.754Z,13.50
2017-10-16T23:27:59.275Z,13.43
2017-10-16T23:30:33.905Z,15.37
2017-10-16T23:33:07.588Z,11.90
2017-10-16T23:35:41.417Z,17.80
2017-10-16T23:38:15.234Z,13.00
2017-10-16T23:40:49.057Z,12.57
2017-10-16T23:43:27.501Z,13.17
2017-10-16T23:46:02.224Z,12.53
2017-10-16T23:48:36.324Z,13.13
2017-10-16T23:51:10.119Z,15.57
2017-10-16T23:53:43.855Z,18.17
2017-10-16T23:56:18.295Z,13.27
2017-10-16T23:58:51.989Z,13.80
